Semipalatinsk Airport
UASS : now visible

Airfield :











YOU CAN JOIN US ON...

 
LOGIN :

Register | Disclaimer

   EN    FR    IT 

 









Legend :    VFR   Marginal VFR   IFR   Intensive IFR   Very Intensive IFR
Visi :
Ceiling :
>= 8 km
>= 3000ft
5 to 8 km
1000 to 3000 ft
1500m to 5 km
500 to 1000 ft
800 to 1500m
200 to 500 ft
< 800m
< 200 ft
Symbols :   Thunderstorms  Fog  Heavy snow  Heavy precipitations  Wind > 20 kt






- Airport Elevation : 761 ft
- IATA code : DLX


UASS - Semipalatinsk

CURRENT METAR :
  • 101000Z 22005MPS 9999 BKN046CB 10/M05 Q1032 R26/0///60 NOSIG RMK QFE755/1007

EXPIRED METARs :
  • 100930Z 22004MPS CAVOK 10/M05 Q1032 R26/0///60 NOSIG RMK QFE755/1007
  • 100900Z 23005MPS 170V290 CAVOK 10/M04 Q1032 R26/0///60 NOSIG RMK QFE756/1008
  • 100830Z 23004MPS 180V270 CAVOK 10/M04 Q1033 R26/0///60 NOSIG RMK QFE756/1008
  • 100800Z 23006MPS 190V260 CAVOK 11/M04 Q1033 R26/0///60 NOSIG RMK QFE756/1008

TAF TAF UASS
Valid from the 10 at 09:00 until the 10 at 18:00 UTC


100800Z 1009/1018 20006MPS 9999 BKN030 BKN100
TEMPO 1009/1015 25006MPS



MET'MAP, your aeronautical weather chart ! - Copyright ORBIFLY December 2007 - Disclaimer

ORBIFLY MET'MAP TEAM :

Programming & Development : Alexandra Zaïnal
Concept & original design : Baudouin d'Aumeries
Assistance for programming : Marc-Olivier Méhu
Technical & hardware support : Manuel Goepfert

Contact : metmap@orbifly.com




SOURCES & CREDITS :

   NOAA       Earth
Advisory